sensor_id;sensor_type;location;lat;lon;timestamp;pressure;altitude;pressure_sealevel;temperature;humidity
34205;BME280;20471;49.680;20.074;2023-05-22T00:01:41;97371.11;;;10.58;66.88
34205;BME280;20471;49.680;20.074;2023-05-22T00:04:09;97372.28;;;10.52;67.14
34205;BME280;20471;49.680;20.074;2023-05-22T00:06:42;97373.63;;;10.50;67.34
34205;BME280;20471;49.680;20.074;2023-05-22T00:09:10;97371.10;;;10.50;67.36
34205;BME280;20471;49.680;20.074;2023-05-22T00:11:38;97371.89;;;10.47;67.36
34205;BME280;20471;49.680;20.074;2023-05-22T00:14:06;97369.98;;;10.42;67.50
34205;BME280;20471;49.680;20.074;2023-05-22T00:16:34;97372.31;;;10.41;67.65
34205;BME280;20471;49.680;20.074;2023-05-22T00:19:03;97373.98;;;10.39;67.59
34205;BME280;20471;49.680;20.074;2023-05-22T00:21:32;97376.20;;;10.36;67.52
34205;BME280;20471;49.680;20.074;2023-05-22T00:24:03;97375.90;;;10.34;67.66
34205;BME280;20471;49.680;20.074;2023-05-22T00:26:31;97379.02;;;10.33;67.68
34205;BME280;20471;49.680;20.074;2023-05-22T00:28:59;97374.20;;;10.31;67.74
34205;BME280;20471;49.680;20.074;2023-05-22T00:31:27;97372.05;;;10.30;67.68
34205;BME280;20471;49.680;20.074;2023-05-22T00:33:55;97370.59;;;10.29;67.79
34205;BME280;20471;49.680;20.074;2023-05-22T00:36:23;97367.61;;;10.26;67.60
34205;BME280;20471;49.680;20.074;2023-05-22T00:38:51;97365.02;;;10.19;67.68
34205;BME280;20471;49.680;20.074;2023-05-22T00:41:20;97365.85;;;10.16;67.78
34205;BME280;20471;49.680;20.074;2023-05-22T00:43:48;97368.85;;;10.10;67.66
34205;BME280;20471;49.680;20.074;2023-05-22T00:46:17;97365.52;;;10.04;67.81
34205;BME280;20471;49.680;20.074;2023-05-22T00:48:46;97366.92;;;9.99;67.97
34205;BME280;20471;49.680;20.074;2023-05-22T00:51:15;97367.63;;;9.90;67.97
34205;BME280;20471;49.680;20.074;2023-05-22T00:53:44;97368.40;;;9.83;68.07
34205;BME280;20471;49.680;20.074;2023-05-22T00:56:12;97371.05;;;9.82;68.19
34205;BME280;20471;49.680;20.074;2023-05-22T00:58:42;97368.04;;;9.76;68.14
34205;BME280;20471;49.680;20.074;2023-05-22T01:01:10;97370.90;;;9.72;68.18
34205;BME280;20471;49.680;20.074;2023-05-22T01:03:39;97371.55;;;9.70;68.17
34205;BME280;20471;49.680;20.074;2023-05-22T01:06:14;97371.22;;;9.66;68.26
34205;BME280;20471;49.680;20.074;2023-05-22T01:08:43;97368.94;;;9.62;68.30
34205;BME280;20471;49.680;20.074;2023-05-22T01:30:46;97364.55;;;9.31;68.44
34205;BME280;20471;49.680;20.074;2023-05-22T01:33:16;97365.08;;;9.27;68.55
34205;BME280;20471;49.680;20.074;2023-05-22T01:35:47;97366.63;;;9.23;68.61
34205;BME280;20471;49.680;20.074;2023-05-22T01:38:20;97364.67;;;9.21;68.68
34205;BME280;20471;49.680;20.074;2023-05-22T01:40:48;97362.97;;;9.19;68.79
34205;BME280;20471;49.680;20.074;2023-05-22T01:43:17;97363.80;;;9.16;68.56
34205;BME280;20471;49.680;20.074;2023-05-22T01:45:45;97365.61;;;9.12;68.56
34205;BME280;20471;49.680;20.074;2023-05-22T01:48:13;97368.20;;;9.09;68.69
34205;BME280;20471;49.680;20.074;2023-05-22T01:50:41;97363.15;;;9.06;68.70
34205;BME280;20471;49.680;20.074;2023-05-22T01:53:23;97358.58;;;8.99;68.71
34205;BME280;20471;49.680;20.074;2023-05-22T01:55:56;97360.46;;;8.96;68.78
34205;BME280;20471;49.680;20.074;2023-05-22T01:58:44;97359.10;;;8.93;68.84
34205;BME280;20471;49.680;20.074;2023-05-22T02:01:18;97360.15;;;8.86;68.85
34205;BME280;20471;49.680;20.074;2023-05-22T02:03:48;97360.64;;;8.82;68.93
34205;BME280;20471;49.680;20.074;2023-05-22T02:06:24;97361.45;;;8.78;69.02
34205;BME280;20471;49.680;20.074;2023-05-22T02:08:54;97361.55;;;8.75;69.15
34205;BME280;20471;49.680;20.074;2023-05-22T02:11:23;97364.23;;;8.68;69.18
34205;BME280;20471;49.680;20.074;2023-05-22T02:13:55;97367.55;;;8.63;69.15
34205;BME280;20471;49.680;20.074;2023-05-22T02:16:23;97365.86;;;8.58;69.23
34205;BME280;20471;49.680;20.074;2023-05-22T02:19:00;97363.48;;;8.53;69.21
34205;BME280;20471;49.680;20.074;2023-05-22T02:21:33;97363.20;;;8.47;69.23
34205;BME280;20471;49.680;20.074;2023-05-22T02:24:01;97363.48;;;8.44;69.34
34205;BME280;20471;49.680;20.074;2023-05-22T02:26:30;97363.88;;;8.41;69.37
34205;BME280;20471;49.680;20.074;2023-05-22T02:28:58;97359.25;;;8.38;69.38
34205;BME280;20471;49.680;20.074;2023-05-22T02:31:26;97355.98;;;8.36;69.38
34205;BME280;20471;49.680;20.074;2023-05-22T02:33:54;97356.37;;;8.34;69.59
34205;BME280;20471;49.680;20.074;2023-05-22T02:36:23;97355.55;;;8.28;69.63
34205;BME280;20471;49.680;20.074;2023-05-22T02:38:51;97357.29;;;8.25;69.64
34205;BME280;20471;49.680;20.074;2023-05-22T02:41:21;97358.52;;;8.22;69.67
34205;BME280;20471;49.680;20.074;2023-05-22T02:43:50;97359.14;;;8.20;69.75
34205;BME280;20471;49.680;20.074;2023-05-22T02:46:18;97355.16;;;8.19;69.65
34205;BME280;20471;49.680;20.074;2023-05-22T02:48:46;97349.89;;;8.17;69.69
34205;BME280;20471;49.680;20.074;2023-05-22T02:51:14;97353.09;;;8.14;69.72
34205;BME280;20471;49.680;20.074;2023-05-22T02:53:42;97354.55;;;8.11;69.82
34205;BME280;20471;49.680;20.074;2023-05-22T02:56:10;97352.64;;;8.10;69.96
34205;BME280;20471;49.680;20.074;2023-05-22T02:58:38;97349.13;;;8.04;69.97
34205;BME280;20471;49.680;20.074;2023-05-22T03:01:07;97349.80;;;8.00;69.86
34205;BME280;20471;49.680;20.074;2023-05-22T03:03:36;97354.02;;;7.96;69.93
34205;BME280;20471;49.680;20.074;2023-05-22T03:06:04;97351.32;;;7.95;69.96
34205;BME280;20471;49.680;20.074;2023-05-22T03:08:34;97348.52;;;7.89;69.91
34205;BME280;20471;49.680;20.074;2023-05-22T03:11:06;97349.06;;;7.80;69.82
34205;BME280;20471;49.680;20.074;2023-05-22T03:13:35;97348.90;;;7.78;69.90
34205;BME280;20471;49.680;20.074;2023-05-22T03:16:03;97350.44;;;7.78;70.11
34205;BME280;20471;49.680;20.074;2023-05-22T03:18:31;97350.34;;;7.80;70.34
34205;BME280;20471;49.680;20.074;2023-05-22T03:20:59;97349.65;;;7.83;70.35
34205;BME280;20471;49.680;20.074;2023-05-22T03:23:27;97346.44;;;7.84;70.38
34205;BME280;20471;49.680;20.074;2023-05-22T03:25:56;97346.10;;;7.85;70.28
34205;BME280;20471;49.680;20.074;2023-05-22T03:28:24;97348.55;;;7.83;70.23
34205;BME280;20471;49.680;20.074;2023-05-22T03:30:52;97348.02;;;7.81;70.30
34205;BME280;20471;49.680;20.074;2023-05-22T03:33:20;97346.76;;;7.79;70.31
34205;BME280;20471;49.680;20.074;2023-05-22T03:35:48;97346.45;;;7.76;70.35
34205;BME280;20471;49.680;20.074;2023-05-22T03:38:16;97350.72;;;7.74;70.56
34205;BME280;20471;49.680;20.074;2023-05-22T03:40:44;97350.64;;;7.74;70.62
34205;BME280;20471;49.680;20.074;2023-05-22T03:43:12;97349.28;;;7.74;70.72
34205;BME280;20471;49.680;20.074;2023-05-22T03:45:40;97346.76;;;7.77;70.87
34205;BME280;20471;49.680;20.074;2023-05-22T03:48:09;97349.20;;;7.79;70.93
34205;BME280;20471;49.680;20.074;2023-05-22T03:50:38;97345.26;;;7.81;71.02
34205;BME280;20471;49.680;20.074;2023-05-22T03:53:06;97345.85;;;7.83;71.03
34205;BME280;20471;49.680;20.074;2023-05-22T03:55:34;97349.79;;;7.86;71.02
34205;BME280;20471;49.680;20.074;2023-05-22T03:58:02;97346.38;;;7.89;71.05
34205;BME280;20471;49.680;20.074;2023-05-22T04:00:30;97345.25;;;7.92;71.17
34205;BME280;20471;49.680;20.074;2023-05-22T04:02:58;97344.09;;;7.95;71.11
34205;BME280;20471;49.680;20.074;2023-05-22T04:05:27;97344.16;;;7.98;71.22
34205;BME280;20471;49.680;20.074;2023-05-22T04:07:57;97342.27;;;8.00;71.41
34205;BME280;20471;49.680;20.074;2023-05-22T04:10:25;97347.27;;;8.03;71.44
34205;BME280;20471;49.680;20.074;2023-05-22T04:12:53;97349.54;;;8.07;71.42
34205;BME280;20471;49.680;20.074;2023-05-22T04:15:21;97350.02;;;8.13;71.50
34205;BME280;20471;49.680;20.074;2023-05-22T04:17:49;97344.92;;;8.18;71.62
34205;BME280;20471;49.680;20.074;2023-05-22T04:20:18;97344.61;;;8.21;71.49
34205;BME280;20471;49.680;20.074;2023-05-22T04:22:47;97340.88;;;8.25;71.56
34205;BME280;20471;49.680;20.074;2023-05-22T04:25:16;97338.70;;;8.28;71.56
34205;BME280;20471;49.680;20.074;2023-05-22T04:27:44;97334.48;;;8.34;71.72
34205;BME280;20471;49.680;20.074;2023-05-22T04:30:13;97336.27;;;8.40;71.76
34205;BME280;20471;49.680;20.074;2023-05-22T04:32:42;97334.02;;;8.46;71.87
34205;BME280;20471;49.680;20.074;2023-05-22T04:35:10;97333.05;;;8.51;71.94
34205;BME280;20471;49.680;20.074;2023-05-22T04:37:38;97329.52;;;8.59;71.78
34205;BME280;20471;49.680;20.074;2023-05-22T04:40:08;97329.27;;;8.66;71.71
34205;BME280;20471;49.680;20.074;2023-05-22T04:42:37;97326.73;;;8.73;71.68
34205;BME280;20471;49.680;20.074;2023-05-22T04:45:06;97327.58;;;8.80;71.84
34205;BME280;20471;49.680;20.074;2023-05-22T04:47:34;97328.30;;;8.87;71.81
34205;BME280;20471;49.680;20.074;2023-05-22T04:50:04;97326.67;;;8.93;71.85
34205;BME280;20471;49.680;20.074;2023-05-22T04:52:32;97324.61;;;8.98;71.98
34205;BME280;20471;49.680;20.074;2023-05-22T04:55:00;97324.46;;;9.04;71.93
34205;BME280;20471;49.680;20.074;2023-05-22T04:57:28;97326.66;;;9.11;71.98
34205;BME280;20471;49.680;20.074;2023-05-22T04:59:57;97324.95;;;9.17;71.93
34205;BME280;20471;49.680;20.074;2023-05-22T05:02:25;97324.37;;;9.24;71.78
34205;BME280;20471;49.680;20.074;2023-05-22T05:04:53;97320.44;;;9.31;71.88
34205;BME280;20471;49.680;20.074;2023-05-22T05:07:21;97312.58;;;9.40;71.96
34205;BME280;20471;49.680;20.074;2023-05-22T05:09:50;97311.09;;;9.49;71.98
34205;BME280;20471;49.680;20.074;2023-05-22T05:12:18;97307.15;;;9.56;71.92
34205;BME280;20471;49.680;20.074;2023-05-22T05:14:46;97310.67;;;9.65;71.86
34205;BME280;20471;49.680;20.074;2023-05-22T05:17:14;97312.62;;;9.74;71.85
34205;BME280;20471;49.680;20.074;2023-05-22T05:19:43;97310.67;;;9.84;71.92
34205;BME280;20471;49.680;20.074;2023-05-22T05:22:11;97309.29;;;9.92;71.73
34205;BME280;20471;49.680;20.074;2023-05-22T05:24:39;97307.95;;;10.00;71.55
34205;BME280;20471;49.680;20.074;2023-05-22T05:27:07;97306.70;;;10.09;71.51
34205;BME280;20471;49.680;20.074;2023-05-22T05:29:35;97306.70;;;10.19;71.29
34205;BME280;20471;49.680;20.074;2023-05-22T05:32:03;97306.55;;;10.27;71.41
34205;BME280;20471;49.680;20.074;2023-05-22T05:34:31;97304.46;;;10.36;71.27
34205;BME280;20471;49.680;20.074;2023-05-22T05:37:00;97303.02;;;10.45;70.97
34205;BME280;20471;49.680;20.074;2023-05-22T05:39:28;97299.98;;;10.56;70.81
34205;BME280;20471;49.680;20.074;2023-05-22T05:41:56;97297.53;;;10.66;70.54
34205;BME280;20471;49.680;20.074;2023-05-22T05:44:25;97295.45;;;10.77;70.25
34205;BME280;20471;49.680;20.074;2023-05-22T05:46:53;97292.81;;;10.88;69.84
34205;BME280;20471;49.680;20.074;2023-05-22T05:49:21;97294.75;;;10.99;69.54
34205;BME280;20471;49.680;20.074;2023-05-22T05:51:49;97292.85;;;11.10;69.44
34205;BME280;20471;49.680;20.074;2023-05-22T05:54:17;97291.10;;;11.23;69.31
34205;BME280;20471;49.680;20.074;2023-05-22T05:56:46;97287.95;;;11.35;69.17
34205;BME280;20471;49.680;20.074;2023-05-22T05:59:14;97285.48;;;11.47;68.98
34205;BME280;20471;49.680;20.074;2023-05-22T06:01:45;97282.39;;;11.60;69.06
34205;BME280;20471;49.680;20.074;2023-05-22T06:04:14;97280.96;;;11.72;68.82
34205;BME280;20471;49.680;20.074;2023-05-22T06:06:42;97283.54;;;11.84;68.75
34205;BME280;20471;49.680;20.074;2023-05-22T06:09:10;97281.23;;;11.95;68.38
34205;BME280;20471;49.680;20.074;2023-05-22T06:11:38;97278.27;;;12.07;68.21
34205;BME280;20471;49.680;20.074;2023-05-22T06:14:06;97280.07;;;12.19;68.30
34205;BME280;20471;49.680;20.074;2023-05-22T06:16:35;97278.27;;;12.32;68.23
34205;BME280;20471;49.680;20.074;2023-05-22T06:19:03;97277.06;;;12.45;67.72
34205;BME280;20471;49.680;20.074;2023-05-22T06:21:31;97273.50;;;12.58;67.08
34205;BME280;20471;49.680;20.074;2023-05-22T06:23:59;97269.70;;;12.69;66.86
34205;BME280;20471;49.680;20.074;2023-05-22T06:26:28;97267.23;;;12.82;66.82
34205;BME280;20471;49.680;20.074;2023-05-22T06:28:56;97259.86;;;12.94;66.61
34205;BME280;20471;49.680;20.074;2023-05-22T06:31:24;97259.92;;;13.07;66.27
34205;BME280;20471;49.680;20.074;2023-05-22T06:33:53;97259.13;;;13.18;66.14
34205;BME280;20471;49.680;20.074;2023-05-22T06:36:21;97260.63;;;13.29;65.82
34205;BME280;20471;49.680;20.074;2023-05-22T06:38:49;97262.67;;;13.42;65.74
34205;BME280;20471;49.680;20.074;2023-05-22T06:41:20;97257.78;;;13.56;65.65
34205;BME280;20471;49.680;20.074;2023-05-22T06:43:48;97254.92;;;13.73;65.76
34205;BME280;20471;49.680;20.074;2023-05-22T06:46:16;97256.31;;;13.86;65.00
34205;BME280;20471;49.680;20.074;2023-05-22T06:48:44;97251.38;;;14.00;64.60
34205;BME280;20471;49.680;20.074;2023-05-22T06:51:12;97250.81;;;14.13;64.31
34205;BME280;20471;49.680;20.074;2023-05-22T06:53:40;97247.73;;;14.26;64.22
34205;BME280;20471;49.680;20.074;2023-05-22T06:56:08;97251.91;;;14.45;64.30
34205;BME280;20471;49.680;20.074;2023-05-22T06:58:38;97246.05;;;14.66;63.64
34205;BME280;20471;49.680;20.074;2023-05-22T07:01:06;97248.55;;;14.91;63.02
34205;BME280;20471;49.680;20.074;2023-05-22T07:03:34;97244.63;;;15.13;61.63
34205;BME280;20471;49.680;20.074;2023-05-22T07:06:02;97245.41;;;15.36;60.76
34205;BME280;20471;49.680;20.074;2023-05-22T07:08:31;97242.65;;;15.58;59.49
34205;BME280;20471;49.680;20.074;2023-05-22T07:10:59;97235.29;;;15.80;59.24
34205;BME280;20471;49.680;20.074;2023-05-22T07:13:32;97230.80;;;16.00;58.92
34205;BME280;20471;49.680;20.074;2023-05-22T07:16:00;97230.38;;;16.20;58.23
34205;BME280;20471;49.680;20.074;2023-05-22T07:18:28;97228.85;;;16.44;57.67
34205;BME280;20471;49.680;20.074;2023-05-22T07:20:57;97229.41;;;16.65;57.03
34205;BME280;20471;49.680;20.074;2023-05-22T07:23:25;97231.85;;;16.82;56.31
34205;BME280;20471;49.680;20.074;2023-05-22T07:25:53;97228.17;;;17.01;55.86
34205;BME280;20471;49.680;20.074;2023-05-22T07:28:21;97231.36;;;17.17;55.07
34205;BME280;20471;49.680;20.074;2023-05-22T07:30:49;97231.30;;;17.34;54.61
34205;BME280;20471;49.680;20.074;2023-05-22T07:33:18;97230.07;;;17.48;54.14
34205;BME280;20471;49.680;20.074;2023-05-22T07:35:46;97228.90;;;17.64;53.65
34205;BME280;20471;49.680;20.074;2023-05-22T07:38:14;97233.66;;;17.82;53.62
34205;BME280;20471;49.680;20.074;2023-05-22T07:40:42;97233.03;;;18.03;53.27
34205;BME280;20471;49.680;20.074;2023-05-22T07:43:10;97228.08;;;18.31;51.87
34205;BME280;20471;49.680;20.074;2023-05-22T07:45:41;97224.35;;;18.71;51.65
34205;BME280;20471;49.680;20.074;2023-05-22T07:48:09;97225.65;;;19.20;51.16
34205;BME280;20471;49.680;20.074;2023-05-22T07:50:37;97226.33;;;19.70;50.37
34205;BME280;20471;49.680;20.074;2023-05-22T07:53:10;97224.92;;;20.24;49.18
34205;BME280;20471;49.680;20.074;2023-05-22T07:55:38;97221.63;;;20.78;48.04
34205;BME280;20471;49.680;20.074;2023-05-22T07:58:06;97221.33;;;21.30;47.60
34205;BME280;20471;49.680;20.074;2023-05-22T08:00:36;97219.23;;;21.76;46.88
34205;BME280;20471;49.680;20.074;2023-05-22T08:03:04;97215.44;;;22.16;46.22
34205;BME280;20471;49.680;20.074;2023-05-22T08:05:33;97215.55;;;22.56;45.60
34205;BME280;20471;49.680;20.074;2023-05-22T08:08:01;97216.48;;;22.95;44.31
34205;BME280;20471;49.680;20.074;2023-05-22T08:10:30;97216.80;;;23.32;43.38
34205;BME280;20471;49.680;20.074;2023-05-22T08:12:58;97219.50;;;23.63;42.70
34205;BME280;20471;49.680;20.074;2023-05-22T08:15:32;97219.52;;;23.89;42.09
34205;BME280;20471;49.680;20.074;2023-05-22T08:18:00;97218.86;;;24.18;41.71
34205;BME280;20471;49.680;20.074;2023-05-22T08:20:28;97215.05;;;24.52;40.47
34205;BME280;20471;49.680;20.074;2023-05-22T08:22:57;97216.40;;;24.75;39.89
34205;BME280;20471;49.680;20.074;2023-05-22T08:25:25;97213.54;;;24.97;39.22
34205;BME280;20471;49.680;20.074;2023-05-22T08:27:53;97215.28;;;25.19;38.63
34205;BME280;20471;49.680;20.074;2023-05-22T08:30:21;97215.33;;;25.49;38.86
34205;BME280;20471;49.680;20.074;2023-05-22T08:32:49;97215.02;;;25.78;38.26
34205;BME280;20471;49.680;20.074;2023-05-22T08:35:17;97211.27;;;26.11;37.88
34205;BME280;20471;49.680;20.074;2023-05-22T08:37:45;97205.72;;;26.49;37.31
34205;BME280;20471;49.680;20.074;2023-05-22T08:40:14;97207.75;;;26.80;36.96
34205;BME280;20471;49.680;20.074;2023-05-22T08:42:42;97209.41;;;27.06;35.84
34205;BME280;20471;49.680;20.074;2023-05-22T08:45:10;97211.52;;;27.22;35.50
34205;BME280;20471;49.680;20.074;2023-05-22T08:47:41;97213.23;;;27.46;35.22
34205;BME280;20471;49.680;20.074;2023-05-22T08:50:11;97214.95;;;27.72;35.09
34205;BME280;20471;49.680;20.074;2023-05-22T08:52:48;97212.44;;;27.89;34.01
34205;BME280;20471;49.680;20.074;2023-05-22T08:55:18;97218.52;;;28.07;33.90
34205;BME280;20471;49.680;20.074;2023-05-22T08:57:48;97212.16;;;28.30;33.11
34205;BME280;20471;49.680;20.074;2023-05-22T09:00:18;97207.27;;;28.42;32.74
34205;BME280;20471;49.680;20.074;2023-05-22T09:02:48;97205.02;;;28.60;33.18
34205;BME280;20471;49.680;20.074;2023-05-22T09:05:16;97203.22;;;28.86;32.49
34205;BME280;20471;49.680;20.074;2023-05-22T09:07:44;97201.27;;;29.11;32.26
34205;BME280;20471;49.680;20.074;2023-05-22T09:10:14;97204.17;;;29.30;32.22
34205;BME280;20471;49.680;20.074;2023-05-22T09:15:34;97194.39;;;29.57;31.03
34205;BME280;20471;49.680;20.074;2023-05-22T09:18:04;97197.90;;;29.71;31.43
34205;BME280;20471;49.680;20.074;2023-05-22T09:20:37;97195.00;;;29.85;31.06
34205;BME280;20471;49.680;20.074;2023-05-22T09:23:15;97191.48;;;29.95;31.16
34205;BME280;20471;49.680;20.074;2023-05-22T09:25:45;97190.89;;;30.09;30.92
34205;BME280;20471;49.680;20.074;2023-05-22T09:28:13;97189.79;;;30.18;30.57
34205;BME280;20471;49.680;20.074;2023-05-22T09:30:41;97188.45;;;30.14;29.59
34205;BME280;20471;49.680;20.074;2023-05-22T09:33:11;97185.63;;;30.08;29.72
34205;BME280;20471;49.680;20.074;2023-05-22T09:35:40;97181.14;;;30.07;29.50
34205;BME280;20471;49.680;20.074;2023-05-22T09:38:09;97179.11;;;30.06;29.37
34205;BME280;20471;49.680;20.074;2023-05-22T09:40:38;97176.56;;;30.06;29.47
34205;BME280;20471;49.680;20.074;2023-05-22T09:43:10;97173.90;;;29.98;28.77
34205;BME280;20471;49.680;20.074;2023-05-22T09:45:38;97173.60;;;29.92;28.89
34205;BME280;20471;49.680;20.074;2023-05-22T09:48:08;97173.41;;;29.94;29.30
34205;BME280;20471;49.680;20.074;2023-05-22T09:50:38;97172.14;;;29.92;28.85
34205;BME280;20471;49.680;20.074;2023-05-22T09:53:09;97171.08;;;29.59;28.39
34205;BME280;20471;49.680;20.074;2023-05-22T09:55:37;97168.88;;;29.17;28.74
34205;BME280;20471;49.680;20.074;2023-05-22T09:58:07;97169.40;;;28.84;28.88
34205;BME280;20471;49.680;20.074;2023-05-22T10:00:38;97165.11;;;28.62;29.19
34205;BME280;20471;49.680;20.074;2023-05-22T10:03:08;97165.27;;;28.50;29.21
34205;BME280;20471;49.680;20.074;2023-05-22T10:05:44;97162.20;;;28.49;29.44
34205;BME280;20471;49.680;20.074;2023-05-22T10:08:17;97157.43;;;28.58;29.00
34205;BME280;20471;49.680;20.074;2023-05-22T10:10:50;97155.77;;;28.68;29.35
34205;BME280;20471;49.680;20.074;2023-05-22T10:13:19;97154.89;;;28.79;29.81
34205;BME280;20471;49.680;20.074;2023-05-22T10:15:48;97155.39;;;28.91;29.32
34205;BME280;20471;49.680;20.074;2023-05-22T10:18:16;97150.98;;;29.04;29.53
34205;BME280;20471;49.680;20.074;2023-05-22T10:20:45;97145.02;;;29.14;29.40
34205;BME280;20471;49.680;20.074;2023-05-22T10:23:14;97145.67;;;29.25;28.62
34205;BME280;20471;49.680;20.074;2023-05-22T10:25:43;97149.66;;;29.29;28.97
34205;BME280;20471;49.680;20.074;2023-05-22T10:28:29;97150.66;;;29.38;28.65
34205;BME280;20471;49.680;20.074;2023-05-22T10:31:05;97150.63;;;29.43;28.84
34205;BME280;20471;49.680;20.074;2023-05-22T10:33:40;97147.86;;;29.46;28.53
34205;BME280;20471;49.680;20.074;2023-05-22T10:36:19;97144.10;;;29.43;27.78
34205;BME280;20471;49.680;20.074;2023-05-22T10:41:24;97146.36;;;29.36;27.77
34205;BME280;20471;49.680;20.074;2023-05-22T10:43:55;97142.59;;;29.23;27.53
34205;BME280;20471;49.680;20.074;2023-05-22T10:46:23;97143.42;;;29.28;27.97
34205;BME280;20471;49.680;20.074;2023-05-22T10:48:53;97145.52;;;29.35;27.92
34205;BME280;20471;49.680;20.074;2023-05-22T10:51:22;97141.08;;;29.39;28.39
34205;BME280;20471;49.680;20.074;2023-05-22T10:53:56;97137.39;;;29.44;28.38
34205;BME280;20471;49.680;20.074;2023-05-22T10:56:33;97131.94;;;29.43;28.51
34205;BME280;20471;49.680;20.074;2023-05-22T10:59:04;97134.16;;;29.45;28.95
34205;BME280;20471;49.680;20.074;2023-05-22T11:01:34;97135.33;;;29.55;29.08
34205;BME280;20471;49.680;20.074;2023-05-22T11:07:01;97125.42;;;29.60;27.64
34205;BME280;20471;49.680;20.074;2023-05-22T11:09:34;97121.73;;;29.46;27.45
34205;BME280;20471;49.680;20.074;2023-05-22T11:15:11;97124.30;;;29.33;28.38
34205;BME280;20471;49.680;20.074;2023-05-22T11:17:42;97121.98;;;29.20;28.44
34205;BME280;20471;49.680;20.074;2023-05-22T11:20:19;97116.45;;;29.16;28.58
34205;BME280;20471;49.680;20.074;2023-05-22T11:23:02;97118.79;;;29.12;28.62
34205;BME280;20471;49.680;20.074;2023-05-22T11:25:33;97118.83;;;29.16;28.52
34205;BME280;20471;49.680;20.074;2023-05-22T11:28:04;97115.59;;;29.29;28.54
34205;BME280;20471;49.680;20.074;2023-05-22T11:30:33;97111.13;;;29.35;27.93
34205;BME280;20471;49.680;20.074;2023-05-22T11:33:03;97111.39;;;29.35;28.41
34205;BME280;20471;49.680;20.074;2023-05-22T11:35:32;97108.90;;;29.35;28.38
34205;BME280;20471;49.680;20.074;2023-05-22T11:38:03;97108.52;;;28.98;28.28
34205;BME280;20471;49.680;20.074;2023-05-22T11:40:31;97108.65;;;28.85;28.99
34205;BME280;20471;49.680;20.074;2023-05-22T11:43:00;97109.87;;;28.94;28.92
34205;BME280;20471;49.680;20.074;2023-05-22T11:45:29;97102.95;;;28.86;28.34
34205;BME280;20471;49.680;20.074;2023-05-22T11:47:57;97105.00;;;28.43;28.44
34205;BME280;20471;49.680;20.074;2023-05-22T11:50:26;97103.81;;;28.33;28.69
34205;BME280;20471;49.680;20.074;2023-05-22T11:52:54;97106.42;;;28.35;29.11
34205;BME280;20471;49.680;20.074;2023-05-22T11:55:25;97106.40;;;28.46;29.28
34205;BME280;20471;49.680;20.074;2023-05-22T11:57:54;97102.89;;;28.59;29.08
34205;BME280;20471;49.680;20.074;2023-05-22T12:00:22;97096.95;;;28.71;29.27
34205;BME280;20471;49.680;20.074;2023-05-22T12:02:51;97093.29;;;28.71;29.57
34205;BME280;20471;49.680;20.074;2023-05-22T12:05:20;97092.98;;;28.73;29.78
34205;BME280;20471;49.680;20.074;2023-05-22T12:07:48;97092.37;;;28.81;29.28
34205;BME280;20471;49.680;20.074;2023-05-22T12:10:17;97094.06;;;28.88;28.62
34205;BME280;20471;49.680;20.074;2023-05-22T12:12:45;97092.93;;;28.81;28.93
34205;BME280;20471;49.680;20.074;2023-05-22T12:15:17;97090.41;;;28.82;28.37
34205;BME280;20471;49.680;20.074;2023-05-22T12:17:46;97091.77;;;28.84;28.24
34205;BME280;20471;49.680;20.074;2023-05-22T12:20:14;97086.66;;;28.89;28.45
34205;BME280;20471;49.680;20.074;2023-05-22T12:22:43;97086.83;;;28.95;28.05
34205;BME280;20471;49.680;20.074;2023-05-22T12:25:13;97084.61;;;29.02;28.70
34205;BME280;20471;49.680;20.074;2023-05-22T12:27:43;97088.59;;;29.12;29.15
34205;BME280;20471;49.680;20.074;2023-05-22T12:30:12;97085.41;;;29.23;28.49
34205;BME280;20471;49.680;20.074;2023-05-22T12:32:46;97084.84;;;29.35;28.73
34205;BME280;20471;49.680;20.074;2023-05-22T12:35:16;97086.58;;;29.35;28.67
34205;BME280;20471;49.680;20.074;2023-05-22T12:37:49;97084.88;;;29.36;28.79
34205;BME280;20471;49.680;20.074;2023-05-22T12:40:17;97080.34;;;29.38;29.00
34205;BME280;20471;49.680;20.074;2023-05-22T12:42:46;97075.21;;;29.38;28.74
34205;BME280;20471;49.680;20.074;2023-05-22T12:45:15;97071.08;;;29.39;28.89
34205;BME280;20471;49.680;20.074;2023-05-22T12:47:43;97069.03;;;29.12;28.60
34205;BME280;20471;49.680;20.074;2023-05-22T12:50:11;97068.02;;;28.94;29.23
34205;BME280;20471;49.680;20.074;2023-05-22T12:52:39;97068.23;;;28.97;29.28
34205;BME280;20471;49.680;20.074;2023-05-22T12:55:09;97067.55;;;29.06;29.21
34205;BME280;20471;49.680;20.074;2023-05-22T12:57:37;97065.53;;;28.97;29.08
34205;BME280;20471;49.680;20.074;2023-05-22T13:00:06;97066.50;;;28.93;29.33
34205;BME280;20471;49.680;20.074;2023-05-22T13:02:34;97063.58;;;28.85;29.28
34205;BME280;20471;49.680;20.074;2023-05-22T13:05:02;97065.29;;;28.73;28.81
34205;BME280;20471;49.680;20.074;2023-05-22T13:07:31;97071.11;;;28.73;28.98
34205;BME280;20471;49.680;20.074;2023-05-22T13:09:59;97066.40;;;28.79;29.15
34205;BME280;20471;49.680;20.074;2023-05-22T13:12:27;97062.98;;;28.84;28.84
34205;BME280;20471;49.680;20.074;2023-05-22T13:14:57;97064.90;;;28.77;28.68
34205;BME280;20471;49.680;20.074;2023-05-22T13:17:27;97059.89;;;28.67;28.05
34205;BME280;20471;49.680;20.074;2023-05-22T13:19:56;97060.48;;;28.58;28.60
34205;BME280;20471;49.680;20.074;2023-05-22T13:22:24;97055.39;;;28.27;28.76
34205;BME280;20471;49.680;20.074;2023-05-22T13:24:52;97053.48;;;28.08;29.20
34205;BME280;20471;49.680;20.074;2023-05-22T13:27:20;97047.34;;;28.01;29.06
34205;BME280;20471;49.680;20.074;2023-05-22T13:29:48;97050.16;;;27.99;29.23
34205;BME280;20471;49.680;20.074;2023-05-22T13:32:18;97048.57;;;28.04;29.15
34205;BME280;20471;49.680;20.074;2023-05-22T13:34:46;97049.77;;;28.04;29.44